WADDWAOO

Guest
Details From WADD - Denpasar Ngurah Rai Intl
To WAOO - Banjarmasin Syamsudin Noor
Flight Number -
Tags generated
Created
Modified
Stats Distance 320 nm / 593 km
Max Altitude 34,000 ft / 10,363 m
Waypoints 5
Social Downloads 2
Likes 0
Share VATSIM

Download

Looking for another format? Having issues loading an existing format? Contact us
Advertisement - Login to hide

Notes

Basic altitude profile: - Ascent Rate: 2500ft/min - Ascent Speed: 250kts - Cruise Altitude: 35000ft - Cruise Speed: 420kts - Descent Rate: 1500ft/min - Descent Speed: 250kts Options: - Use NATs: yes - Use PACOTS: yes - Use low airways: yes - Use high airways: yes

Route

WADD BLI B584 KEVOK WAOO

ID Type Via Altitude Latitude Longitude Leg Dist Tot Dist Heading (true) Name
O WADD APT - 0 ft / 0 m -8.74817˚ 115.16717˚ - 0 nm - Denpasar Ngurah Rai Intl
BLI VOR - 0 ft / 0 m -8.75058˚ 115.16331˚ 0 nm 0 nm 238° / 238° BALI VOR-DME
GALKO FIX B584 (AWY-LO) 34,000 ft / 10,363 m -6.82653˚ 115.08163˚ 115 nm 115 nm 358° / 358° -
KEVOK FIX B584 (AWY-HI) 24,500 ft / 7,468 m -4.34093˚ 114.94174˚ 149 nm 265 nm 357° / 357° -
O WAOO APT - 0 ft / 0 m -3.44235˚ 114.76255˚ 55 nm 320 nm 349° / 349° Banjarmasin Syamsudin Noor

Altitude Profile

Advertisement - Login to hide

Weather


0- 5 10 15 20 25 30 35+ Temperature / ° C

Clouds and Precipitation
Forecast for 2017-12-12 00:00 UTC. Updated 2 hours ago

Ground ~20,000 ft ~40,000 ft Winds

WADD

Details ICAO WADD (DPS)
Name Denpasar Ngurah Rai Intl
Region Indonesia
Timezone Asia/Makassar (UTC+8.0)
Stats Elevation 14 ft / 4 m (AMSL)
Location -8.748169° 115.167174°
Runways 1
Magnetic Variation 1.056° E

METAR

WADD 112230Z 10003KT 8000 FEW013CB BKN015 26/25 Q1010 NOSIG

Decode

TAF

Not found

Departure Runways

ID Width Length Bearing (true) Bearing (mag) Surface Threshold Offset Overrun Length
09 148 ft / 45 m 9,779 ft / 2,981 m 87.71° 86.65° Asphalt 121 ft / 37 m 75 ft / 23 m
27 148 ft / 45 m 9,779 ft / 2,981 m 267.70° 266.64° Asphalt 0 ft / 0 m 197 ft / 60 m

WAOO

Details ICAO WAOO (BDJ)
Name Banjarmasin Syamsudin Noor
Region Indonesia
Timezone Asia/Makassar (UTC+8.0)
Stats Elevation 66 ft / 20 m (AMSL)
Location -3.442354° 114.762552°
Runways 1
Magnetic Variation 0.720° E

METAR

WAOO 112230Z AUTO 33003KT 6000 BKN001 BKN006 25/25 Q1010

Decode

TAF

Not found

Destination Runways

ID Width Length Bearing (true) Bearing (mag) Surface Threshold Offset Overrun Length
10 148 ft / 45 m 8,208 ft / 2,502 m 100.45° 99.73° Asphalt 0 ft / 0 m 200 ft / 61 m
28 148 ft / 45 m 8,208 ft / 2,502 m 280.45° 279.73° Asphalt 0 ft / 0 m 200 ft / 61 m

Approach Navaids

Runway Type Ident Frequency Range Bearing (true) Bearing (mag) Slope Elevation
10 Localiser IBDM 110.70 MHz 18 nm / 33 km 100.49° 99.77° - 66 ft / 20 m (AMSL)
10 Glidescope IBDM 110.70 MHz 10 nm / 19 km 100.45° 99.73° 3.00° 54 ft / 16 m (AMSL)

Popular Alternatives